LHPP/PEV METAR and TAF weather

Enter ICAO airport designator
Station Type Date Time Source
LHPP METAR 2020/01/20 15:45 UTC NOAA

LHPP 201545Z 23003KT 2000 BR OVC010 01/01 Q1044


Station Type Date Time Source
LHPP Decoded METAR 2020/01/20 15:45 UTC NOAA

Pecs / Pogany, Hungary (LHPP) 46-06N 018-14E 203M
Jan 20, 2020 - 10:45 AM EST / 2020.01.20 1545 UTC
Wind: from the SW (230 degrees) at 3 MPH (3 KT):0
Visibility: 1 mile(s):0
Sky conditions: overcast
Weather: mist
Temperature: 33 F (1 C)
Dew Point: 33 F (1 C)
Relative Humidity: 100%
Pressure (altimeter): 30.83 in. Hg (1044 hPa)
ob: LHPP 201545Z 23003KT 2000 BR OVC010 01/01 Q1044
cycle: 16

Station Type Date Time Source
LHPP TAF 2017/08/21 15:50 UTC NOAA

TAF LHPP 211700Z 2115/2214 CNL

Example: see airport list